createdAt,value
2019-01-21T00:04:37.962Z,14.13
2019-01-21T00:07:09.075Z,15.43
2019-01-21T00:09:59.061Z,15.10
2019-01-21T00:12:30.112Z,15.73
2019-01-21T00:15:00.985Z,15.20
2019-01-21T00:17:31.952Z,16.80
2019-01-21T00:20:02.984Z,15.83
2019-01-21T00:22:33.880Z,16.60
2019-01-21T00:25:44.714Z,16.10
2019-01-21T00:28:34.835Z,17.77
2019-01-21T00:31:05.865Z,16.80
2019-01-21T00:33:56.071Z,17.13
2019-01-21T00:36:26.993Z,17.30
2019-01-21T00:42:06.934Z,17.17
2019-01-21T00:44:57.071Z,17.47
2019-01-21T00:47:47.143Z,18.60
2019-01-21T00:50:37.351Z,17.67
2019-01-21T00:53:09.944Z,17.73
2019-01-21T00:56:00.080Z,16.77
2019-01-21T00:58:31.003Z,18.10
2019-01-21T01:01:21.141Z,18.33
2019-01-21T01:07:27.661Z,15.07
2019-01-21T01:10:17.803Z,14.90
2019-01-21T01:12:48.861Z,15.73
2019-01-21T01:15:19.886Z,16.47
2019-01-21T01:17:50.837Z,16.30
2019-01-21T01:20:41.040Z,16.93
2019-01-21T01:23:31.310Z,17.40
2019-01-21T01:26:02.192Z,17.33
2019-01-21T01:28:33.134Z,19.03
2019-01-21T01:31:04.189Z,19.87
2019-01-21T01:33:54.357Z,18.60
2019-01-21T01:36:44.352Z,20.67
2019-01-21T01:39:34.580Z,20.63
2019-01-21T01:42:24.798Z,19.33
2019-01-21T01:44:55.800Z,19.27
2019-01-21T01:50:56.516Z,19.97
2019-01-21T01:53:27.623Z,19.07
2019-01-21T01:56:17.819Z,19.87
2019-01-21T01:59:07.976Z,19.60
2019-01-21T02:01:38.888Z,19.03
2019-01-21T02:10:34.902Z,18.17
2019-01-21T02:13:25.193Z,17.77
2019-01-21T02:15:56.257Z,16.37
2019-01-21T02:19:07.260Z,18.13
2019-01-21T02:22:18.086Z,18.53
2019-01-21T02:25:28.918Z,17.63
2019-01-21T02:28:39.820Z,18.60
2019-01-21T02:31:49.328Z,18.87
2019-01-21T02:35:18.170Z,17.83
2019-01-21T02:38:27.670Z,19.97
2019-01-21T02:41:37.160Z,18.67
2019-01-21T02:44:47.976Z,18.37
2019-01-21T02:48:00.267Z,19.87
2019-01-21T02:51:48.318Z,19.43
2019-01-21T02:54:59.192Z,20.40
2019-01-21T02:58:10.088Z,19.80
2019-01-21T03:01:20.921Z,20.03
2019-01-21T03:04:49.459Z,18.10
2019-01-21T03:08:00.288Z,19.10
2019-01-21T03:11:10.032Z,18.03
2019-01-21T03:14:20.914Z,18.57
2019-01-21T03:17:31.814Z,17.57
2019-01-21T03:20:41.294Z,18.37
2019-01-21T03:23:50.805Z,18.50
2019-01-21T03:27:00.321Z,18.90
2019-01-21T03:30:09.849Z,19.03
2019-01-21T03:33:19.331Z,18.30
2019-01-21T03:36:28.914Z,18.50
2019-01-21T03:39:39.758Z,17.80
2019-01-21T03:42:49.242Z,19.00
2019-01-21T03:46:00.178Z,18.33
2019-01-21T03:49:11.002Z,17.13
2019-01-21T03:52:20.551Z,17.50
2019-01-21T03:55:31.415Z,18.27
2019-01-21T03:58:59.974Z,17.40
2019-01-21T04:02:10.843Z,18.77
2019-01-21T04:05:21.737Z,18.93
2019-01-21T04:08:32.540Z,18.43
2019-01-21T04:11:42.058Z,18.33
2019-01-21T04:14:52.944Z,17.80
2019-01-21T04:18:42.337Z,17.47
2019-01-21T04:21:51.851Z,18.20
2019-01-21T04:25:02.765Z,17.40
2019-01-21T04:28:13.644Z,17.60
2019-01-21T04:31:42.310Z,18.57
2019-01-21T04:34:53.125Z,18.07
2019-01-21T04:38:02.638Z,18.90
2019-01-21T04:41:12.136Z,18.10
2019-01-21T04:44:22.909Z,17.23
2019-01-21T04:48:12.317Z,17.13
2019-01-21T04:51:21.794Z,18.77
2019-01-21T04:54:31.291Z,17.77
2019-01-21T04:57:42.113Z,17.33
2019-01-21T05:00:52.986Z,20.13
2019-01-21T05:04:02.559Z,18.40
2019-01-21T05:07:13.506Z,20.33
2019-01-21T05:10:43.482Z,19.30
2019-01-21T05:14:13.451Z,19.30
2019-01-21T05:17:24.267Z,19.30
2019-01-21T05:20:52.984Z,19.57
2019-01-21T05:24:03.781Z,19.10
2019-01-21T05:27:14.650Z,20.47
2019-01-21T05:30:24.143Z,20.07
2019-01-21T05:33:52.728Z,18.50
2019-01-21T05:37:03.569Z,20.17
2019-01-21T05:40:14.477Z,19.80
2019-01-21T05:43:25.277Z,20.07
2019-01-21T05:46:34.804Z,22.43
2019-01-21T05:49:45.697Z,19.83
2019-01-21T05:52:55.177Z,21.17
2019-01-21T05:56:06.122Z,19.33
2019-01-21T05:59:15.627Z,18.67
2019-01-21T06:02:26.474Z,19.00
2019-01-21T06:05:37.298Z,18.40
2019-01-21T06:08:48.220Z,19.07
2019-01-21T06:11:57.742Z,18.87
2019-01-21T06:15:07.243Z,17.27
2019-01-21T06:18:18.033Z,17.47
2019-01-21T06:21:27.655Z,17.63
2019-01-21T06:24:38.512Z,18.10
2019-01-21T06:27:49.420Z,16.77
2019-01-21T06:31:00.248Z,18.13
2019-01-21T06:34:11.167Z,18.53
2019-01-21T06:37:20.945Z,17.53
2019-01-21T06:40:50.885Z,17.33
2019-01-21T06:44:20.870Z,17.63
2019-01-21T06:47:32.318Z,18.10
2019-01-21T06:51:22.751Z,17.67
2019-01-21T06:54:52.773Z,17.70
2019-01-21T06:58:02.241Z,17.87
2019-01-21T07:01:13.074Z,17.97
2019-01-21T07:04:23.951Z,18.73
2019-01-21T07:07:34.763Z,18.13
2019-01-21T07:11:04.623Z,16.50
2019-01-21T07:14:15.508Z,16.80
2019-01-21T07:17:26.527Z,19.43
2019-01-21T07:20:37.338Z,18.30
2019-01-21T07:23:46.894Z,17.90
2019-01-21T07:26:59.408Z,17.33
2019-01-21T07:30:10.229Z,17.90
2019-01-21T07:33:19.712Z,19.27
2019-01-21T07:36:29.172Z,19.03
2019-01-21T07:39:38.674Z,18.17
2019-01-21T07:42:49.721Z,19.13
2019-01-21T07:45:59.240Z,17.87
2019-01-21T07:49:08.771Z,18.40
2019-01-21T07:52:19.641Z,17.77
2019-01-21T07:55:30.519Z,18.53
2019-01-21T07:58:40.025Z,18.77
2019-01-21T08:01:50.826Z,18.70
2019-01-21T08:05:00.392Z,18.57
2019-01-21T08:08:11.254Z,19.33
2019-01-21T08:11:22.058Z,17.23
2019-01-21T08:14:31.600Z,17.87
2019-01-21T08:17:41.112Z,17.60
2019-01-21T08:20:51.955Z,18.10
2019-01-21T08:24:02.787Z,17.67
2019-01-21T08:27:12.257Z,18.63
2019-01-21T08:30:43.115Z,17.20
2019-01-21T08:33:52.619Z,17.37
2019-01-21T08:37:03.431Z,17.50
2019-01-21T08:40:14.281Z,19.73
2019-01-21T08:43:25.151Z,18.80
2019-01-21T08:46:36.007Z,19.37
2019-01-21T08:49:46.804Z,19.83
2019-01-21T08:52:57.932Z,19.37
2019-01-21T08:56:48.503Z,19.73
2019-01-21T08:59:59.371Z,20.40
2019-01-21T09:03:11.151Z,23.30
2019-01-21T09:07:00.819Z,22.93
2019-01-21T09:10:10.337Z,22.53
2019-01-21T09:13:21.264Z,22.37
2019-01-21T09:16:31.616Z,24.87
2019-01-21T09:20:20.873Z,22.33
2019-01-21T09:23:30.727Z,21.67
2019-01-21T09:26:40.293Z,21.60
2019-01-21T09:29:49.797Z,20.43
2019-01-21T09:32:59.241Z,20.93
2019-01-21T09:36:10.173Z,19.73
2019-01-21T09:39:40.201Z,19.80
2019-01-21T09:42:51.041Z,19.57
2019-01-21T09:46:01.897Z,21.63
2019-01-21T09:48:51.544Z,21.47
2019-01-21T09:52:02.312Z,20.60
2019-01-21T09:54:33.413Z,20.97
2019-01-21T09:57:24.825Z,20.97
2019-01-21T09:59:55.884Z,20.93
2019-01-21T10:03:06.696Z,20.40
2019-01-21T10:06:17.533Z,20.77
2019-01-21T10:09:28.315Z,20.80
2019-01-21T10:12:39.143Z,20.03
2019-01-21T10:15:49.986Z,19.80
2019-01-21T10:19:00.879Z,21.37
2019-01-21T10:22:11.771Z,20.30
2019-01-21T10:25:21.296Z,21.47
2019-01-21T10:28:51.204Z,21.73
2019-01-21T10:32:01.996Z,21.93
2019-01-21T10:47:24.111Z,21.43
2019-01-21T10:50:36.104Z,20.07
2019-01-21T10:54:25.726Z,19.93
2019-01-21T10:57:35.321Z,19.90
2019-01-21T11:00:44.863Z,20.43
2019-01-21T11:03:54.356Z,20.53
2019-01-21T11:07:05.243Z,20.70
2019-01-21T11:10:14.735Z,19.30
2019-01-21T11:13:24.237Z,18.83
2019-01-21T11:16:54.068Z,19.70
2019-01-21T11:20:04.244Z,18.70
2019-01-21T11:23:15.207Z,20.70
2019-01-21T11:26:24.695Z,19.80
2019-01-21T11:29:34.208Z,18.63
2019-01-21T11:32:45.117Z,17.37
2019-01-21T11:35:56.037Z,17.27
2019-01-21T11:39:05.743Z,17.53
2019-01-21T11:42:16.567Z,16.40
2019-01-21T11:45:26.095Z,18.00
2019-01-21T11:48:35.572Z,19.30
2019-01-21T11:51:45.167Z,17.23
2019-01-21T11:54:55.975Z,18.13
2019-01-21T11:58:06.888Z,16.87
2019-01-21T12:01:17.667Z,18.80
2019-01-21T12:04:28.487Z,17.20
2019-01-21T12:07:39.362Z,16.87
2019-01-21T12:14:43.986Z,17.00
2019-01-21T12:17:53.475Z,17.07
2019-01-21T12:25:18.538Z,17.17
2019-01-21T12:28:29.591Z,17.47
2019-01-21T12:31:39.095Z,16.40
2019-01-21T12:34:49.898Z,16.50
2019-01-21T12:38:00.773Z,16.67
2019-01-21T12:41:10.265Z,16.20
2019-01-21T12:44:21.158Z,16.67
2019-01-21T12:47:30.660Z,16.87
2019-01-21T12:50:40.139Z,16.07
2019-01-21T12:53:49.727Z,18.23
2019-01-21T12:57:00.587Z,15.80
2019-01-21T13:00:11.467Z,16.20
2019-01-21T13:03:20.985Z,15.57
2019-01-21T13:06:31.853Z,16.60
2019-01-21T13:09:41.429Z,15.03
2019-01-21T13:12:52.332Z,15.63
2019-01-21T13:16:01.858Z,15.70
2019-01-21T13:19:12.663Z,16.07
2019-01-21T13:22:23.502Z,15.93
2019-01-21T13:25:15.185Z,14.83
2019-01-21T13:28:24.823Z,14.27
2019-01-21T13:31:34.291Z,14.73
2019-01-21T13:34:43.804Z,14.50
2019-01-21T13:37:54.623Z,15.53
2019-01-21T13:41:05.501Z,15.30
2019-01-21T13:44:16.405Z,16.70
2019-01-21T13:47:25.933Z,15.77
2019-01-21T13:50:37.264Z,15.57
2019-01-21T13:54:26.247Z,15.80
2019-01-21T13:57:37.797Z,15.03
2019-01-21T14:00:56.021Z,14.73
2019-01-21T14:04:06.834Z,14.20
2019-01-21T14:07:17.689Z,15.27
2019-01-21T14:10:27.345Z,14.80
2019-01-21T14:13:36.903Z,15.80
2019-01-21T14:16:46.420Z,13.97
2019-01-21T14:19:57.265Z,15.53
2019-01-21T14:23:08.092Z,14.23
2019-01-21T14:26:18.956Z,16.17
2019-01-21T14:29:28.459Z,14.83
2019-01-21T14:32:39.358Z,15.97
2019-01-21T14:35:48.835Z,15.83
2019-01-21T14:38:59.813Z,15.47
2019-01-21T14:42:10.903Z,15.00
2019-01-21T14:46:01.465Z,16.50
2019-01-21T14:49:13.849Z,17.33
2019-01-21T14:52:24.673Z,17.10
2019-01-21T14:55:35.572Z,17.40
2019-01-21T15:02:41.033Z,16.03
2019-01-21T15:05:51.852Z,16.97
2019-01-21T15:09:02.663Z,16.70
2019-01-21T15:12:13.496Z,15.97
2019-01-21T15:15:22.997Z,16.03
2019-01-21T15:18:33.831Z,17.37
2019-01-21T15:21:43.412Z,16.27
2019-01-21T15:24:52.963Z,16.47
2019-01-21T15:28:02.697Z,17.03
2019-01-21T15:31:12.308Z,16.13
2019-01-21T15:34:21.841Z,15.17
2019-01-21T15:37:31.338Z,16.70
2019-01-21T15:40:41.071Z,17.27
2019-01-21T15:43:50.467Z,16.33
2019-01-21T15:47:01.384Z,16.43
2019-01-21T15:50:10.883Z,16.57
2019-01-21T15:53:20.413Z,15.77
2019-01-21T15:56:31.258Z,17.53
2019-01-21T15:59:42.156Z,17.20
2019-01-21T16:02:51.679Z,16.57
2019-01-21T16:06:02.490Z,16.90
2019-01-21T16:09:13.320Z,17.43
2019-01-21T16:12:24.183Z,16.53
2019-01-21T16:15:35.002Z,17.10
2019-01-21T16:19:03.681Z,17.80
2019-01-21T16:22:14.584Z,18.40
2019-01-21T16:25:25.528Z,19.17
2019-01-21T16:28:19.298Z,18.53
2019-01-21T16:31:30.213Z,18.37
2019-01-21T16:34:23.554Z,17.10
2019-01-21T16:38:14.257Z,17.80
2019-01-21T16:41:25.112Z,17.23
2019-01-21T16:43:56.209Z,16.37
2019-01-21T16:46:27.056Z,17.73
2019-01-21T16:48:58.052Z,16.47
2019-01-21T16:51:29.029Z,15.87
2019-01-21T16:54:00.068Z,15.77
2019-01-21T16:56:31.228Z,17.33
2019-01-21T16:59:02.280Z,17.33
2019-01-21T17:01:33.245Z,17.83
2019-01-21T17:07:14.777Z,17.00
2019-01-21T17:09:45.751Z,17.03
2019-01-21T17:12:16.720Z,17.33
2019-01-21T17:14:47.884Z,16.97
2019-01-21T17:17:18.825Z,17.37
2019-01-21T17:20:08.999Z,17.03
2019-01-21T17:22:40.113Z,19.27
2019-01-21T17:25:50.940Z,18.00
2019-01-21T17:31:34.361Z,16.40
2019-01-21T17:34:05.508Z,17.30
2019-01-21T17:36:36.498Z,17.13
2019-01-21T17:39:28.210Z,16.73
2019-01-21T17:41:59.583Z,17.97
2019-01-21T17:44:30.804Z,17.93
2019-01-21T17:47:01.873Z,18.70
2019-01-21T17:49:32.778Z,20.83
2019-01-21T17:52:18.801Z,19.40
2019-01-21T17:55:54.605Z,18.53
2019-01-21T17:58:25.619Z,19.20
2019-01-21T18:00:56.656Z,21.13
2019-01-21T18:03:27.748Z,24.63
2019-01-21T18:05:58.792Z,23.03
2019-01-21T18:08:30.101Z,23.37
2019-01-21T18:14:11.845Z,23.47
2019-01-21T18:16:42.897Z,24.67
2019-01-21T18:19:14.283Z,24.17
2019-01-21T18:22:04.481Z,25.87
2019-01-21T18:24:35.507Z,25.77
2019-01-21T18:27:06.465Z,26.83
2019-01-21T18:29:37.406Z,27.57
2019-01-21T18:32:08.499Z,27.17
2019-01-21T18:34:58.740Z,27.10
2019-01-21T18:40:40.508Z,28.37
2019-01-21T18:43:11.383Z,27.80
2019-01-21T18:46:22.213Z,28.77
2019-01-21T18:52:03.813Z,26.83
2019-01-21T18:58:04.792Z,27.23
2019-01-21T19:00:35.808Z,28.27
2019-01-21T19:03:06.831Z,28.27
2019-01-21T19:05:37.801Z,28.17
2019-01-21T19:08:08.748Z,27.83
2019-01-21T19:10:39.834Z,27.10
2019-01-21T19:13:10.962Z,27.93
2019-01-21T19:15:42.214Z,27.20
2019-01-21T19:18:13.080Z,26.30
2019-01-21T19:20:44.076Z,28.03
2019-01-21T19:23:15.212Z,24.27
2019-01-21T19:25:46.166Z,22.93
2019-01-21T19:28:17.172Z,24.30
2019-01-21T19:33:38.487Z,25.87
2019-01-21T19:36:09.574Z,25.37
2019-01-21T19:38:40.474Z,25.50
2019-01-21T19:41:11.701Z,26.93
2019-01-21T19:43:42.754Z,27.70
2019-01-21T19:46:13.790Z,30.47
2019-01-21T19:48:44.941Z,29.93
2019-01-21T19:51:15.910Z,30.47
2019-01-21T19:53:46.955Z,29.50
2019-01-21T19:56:17.988Z,29.87
2019-01-21T19:58:48.976Z,32.50
2019-01-21T20:01:20.098Z,35.23
2019-01-21T20:03:51.146Z,34.63
2019-01-21T20:06:22.260Z,34.70
2019-01-21T20:08:53.238Z,33.33
2019-01-21T20:11:24.352Z,34.03
2019-01-21T20:13:55.412Z,35.73
2019-01-21T20:16:28.111Z,36.37
2019-01-21T20:18:59.163Z,34.00
2019-01-21T20:21:30.190Z,33.90
2019-01-21T20:24:01.283Z,35.27
2019-01-21T20:26:32.266Z,35.43
2019-01-21T20:29:03.347Z,35.20
2019-01-21T20:31:34.373Z,34.80
2019-01-21T20:34:05.423Z,32.43
2019-01-21T20:36:36.386Z,32.77
2019-01-21T20:39:47.283Z,32.90
2019-01-21T20:42:37.449Z,32.17
2019-01-21T20:45:48.607Z,32.23
2019-01-21T20:48:19.569Z,30.77
2019-01-21T20:50:50.678Z,30.33
2019-01-21T20:56:36.553Z,28.53
2019-01-21T20:59:07.593Z,29.50
2019-01-21T21:01:38.634Z,28.17
2019-01-21T21:04:11.359Z,31.07
2019-01-21T21:06:42.528Z,29.83
2019-01-21T21:09:13.546Z,30.67
2019-01-21T21:11:44.592Z,29.80
2019-01-21T21:14:15.652Z,30.00
2019-01-21T21:16:46.707Z,30.90
2019-01-21T21:19:17.678Z,32.57
2019-01-21T21:21:48.768Z,30.43
2019-01-21T21:24:21.005Z,29.60
2019-01-21T21:27:30.581Z,27.50
2019-01-21T21:31:00.558Z,29.27
2019-01-21T21:33:31.525Z,29.47
2019-01-21T21:36:02.644Z,29.73
2019-01-21T21:38:33.532Z,33.90
2019-01-21T21:41:44.443Z,29.23
2019-01-21T21:44:15.430Z,30.07
2019-01-21T21:46:46.673Z,27.90
2019-01-21T21:49:17.712Z,31.70
2019-01-21T21:52:07.944Z,30.43
2019-01-21T21:54:38.962Z,30.47
2019-01-21T21:57:09.959Z,29.70
2019-01-21T21:59:41.514Z,29.77
2019-01-21T22:05:23.364Z,27.07
2019-01-21T22:07:56.022Z,29.20
2019-01-21T22:11:06.951Z,27.60
2019-01-21T22:13:37.900Z,31.53
2019-01-21T22:16:08.825Z,30.93
2019-01-21T22:18:39.795Z,31.00
2019-01-21T22:21:10.832Z,29.73
2019-01-21T22:23:41.696Z,30.90
2019-01-21T22:26:12.688Z,33.33
2019-01-21T22:29:23.631Z,32.23
2019-01-21T22:31:54.754Z,29.53
2019-01-21T22:35:45.520Z,30.13
2019-01-21T22:38:16.423Z,29.87
2019-01-21T22:40:47.391Z,30.43
2019-01-21T22:43:18.379Z,31.57
2019-01-21T22:45:49.309Z,30.37
2019-01-21T22:48:20.208Z,29.63
2019-01-21T22:50:51.123Z,28.70
2019-01-21T22:53:22.104Z,28.63
2019-01-21T22:59:03.661Z,27.30
2019-01-21T23:02:14.622Z,27.30
2019-01-21T23:04:45.682Z,26.77
2019-01-21T23:07:56.575Z,25.33
2019-01-21T23:10:27.557Z,27.13
2019-01-21T23:13:38.483Z,26.63
2019-01-21T23:16:09.501Z,25.10
2019-01-21T23:18:40.530Z,26.13
2019-01-21T23:21:11.583Z,25.00
2019-01-21T23:23:42.671Z,25.70
2019-01-21T23:26:13.653Z,24.57
2019-01-21T23:28:44.610Z,24.50
2019-01-21T23:31:15.540Z,25.33
2019-01-21T23:33:46.504Z,25.97
2019-01-21T23:36:17.465Z,25.80
2019-01-21T23:38:48.401Z,27.23
2019-01-21T23:41:59.341Z,26.37
2019-01-21T23:44:30.251Z,25.13
2019-01-21T23:47:41.193Z,25.60
2019-01-21T23:50:51.996Z,23.23
2019-01-21T23:53:22.963Z,23.87
2019-01-21T23:55:53.933Z,23.87
2019-01-21T23:59:05.077Z,23.00
